Time;durP1;ratioP1;P1;durP2;ratioP2;P2;SDS_P1;SDS_P2;PMS_P1;PMS_P2;Temp;Humidity;BMP_temperature;BMP_pressure;BME280_temperature;BME280_humidity;BME280_pressure;Samples;Min_cycle;Max_cycle;Signal;HPM_P1;HPM_P2
2022/12/29 00:02:17;;;;;;;8.93;3.63;;;11.10;99.90;;;;;;5054150;28;20056;-63
2022/12/29 00:04:43;;;;;;;8.85;3.28;;;11.10;99.90;;;;;;5053777;28;20159;-64
2022/12/29 00:07:09;;;;;;;8.40;3.45;;;10.90;99.90;;;;;;5054659;28;20095;-63
2022/12/29 00:09:35;;;;;;;8.88;3.58;;;10.80;99.90;;;;;;5053907;28;20075;-64
2022/12/29 00:12:04;;;;;;;7.90;3.45;;;10.80;99.90;;;;;;5053925;28;20048;-64
2022/12/29 00:17:14;;;;;;;9.93;3.40;;;10.90;99.90;;;;;;5054387;28;20075;-64
2022/12/29 00:36:10;;;;;;;6.78;3.35;;;10.50;99.90;;;;;;5053654;28;19931;-63
2022/12/29 00:44:10;;;;;;;11.55;3.25;;;10.20;99.90;;;;;;5053760;28;20028;-63
2022/12/29 00:46:40;;;;;;;10.70;3.63;;;10.00;99.90;;;;;;5053692;28;20033;-64
2022/12/29 00:51:52;;;;;;;11.80;4.20;;;9.90;99.90;;;;;;5053529;28;20032;-63
2022/12/29 00:54:18;;;;;;;13.15;5.43;;;9.70;99.90;;;;;;5053641;28;20110;-63
2022/12/29 00:56:47;;;;;;;9.95;4.28;;;9.60;99.90;;;;;;5053200;28;20025;-63
2022/12/29 00:59:13;;;;;;;11.20;4.40;;;9.40;99.90;;;;;;5052959;28;20025;-63
2022/12/29 01:01:39;;;;;;;14.65;4.43;;;9.50;99.90;;;;;;5053004;28;20378;-64
2022/12/29 01:04:05;;;;;;;9.20;4.10;;;9.50;99.90;;;;;;5053033;28;20044;-63
2022/12/29 01:06:32;;;;;;;9.95;3.80;;;9.40;99.90;;;;;;5053308;28;20111;-63
2022/12/29 01:11:42;;;;;;;12.95;5.10;;;9.30;99.90;;;;;;5053098;28;20381;-63
2022/12/29 01:14:08;;;;;;;11.32;4.95;;;9.30;99.90;;;;;;5052700;28;20025;-64
2022/12/29 01:16:34;;;;;;;12.40;5.90;;;9.20;99.90;;;;;;5052287;28;20021;-63
2022/12/29 01:18:59;;;;;;;13.25;5.57;;;9.20;99.90;;;;;;5052924;28;20091;-63
2022/12/29 01:21:25;;;;;;;12.43;6.20;;;9.20;99.90;;;;;;5052719;28;20098;-63
2022/12/29 01:23:51;;;;;;;10.20;6.15;;;9.20;99.90;;;;;;5053188;28;20095;-64
2022/12/29 01:26:18;;;;;;;10.18;6.95;;;9.00;99.90;;;;;;5052812;28;20508;-64
2022/12/29 01:28:43;;;;;;;22.50;6.63;;;8.90;99.90;;;;;;5052307;28;20049;-63
2022/12/29 01:31:11;;;;;;;14.18;7.20;;;9.00;99.90;;;;;;5050993;28;20060;-64
2022/12/29 01:33:37;;;;;;;14.45;6.63;;;9.00;99.90;;;;;;5052556;28;20035;-64
2022/12/29 01:36:08;;;;;;;14.68;7.13;;;9.00;99.90;;;;;;5052871;28;20029;-64
2022/12/29 01:38:35;;;;;;;14.43;7.75;;;9.10;99.90;;;;;;5052504;28;20017;-64
2022/12/29 01:41:02;;;;;;;14.15;6.57;;;9.00;99.90;;;;;;5052347;28;20032;-64
2022/12/29 01:43:43;;;;;;;13.40;5.57;;;9.00;99.90;;;;;;5051873;28;20017;-64
2022/12/29 01:46:16;;;;;;;14.02;6.10;;;9.10;99.90;;;;;;5051954;28;20024;-63
2022/12/29 01:48:42;;;;;;;13.27;7.13;;;9.20;99.90;;;;;;5052317;28;20486;-64
2022/12/29 01:51:08;;;;;;;20.55;7.15;;;9.30;99.90;;;;;;5052369;28;20078;-64
2022/12/29 01:53:36;;;;;;;16.40;9.82;;;9.10;99.90;;;;;;5052104;28;20017;-63
2022/12/29 01:56:06;;;;;;;15.63;8.70;;;9.10;99.90;;;;;;5052602;28;20116;-63
2022/12/29 01:58:37;;;;;;;18.17;11.05;;;9.10;99.90;;;;;;5052105;28;20024;-64
2022/12/29 02:01:04;;;;;;;18.33;10.57;;;9.00;99.90;;;;;;5051830;28;20037;-63
2022/12/29 02:03:32;;;;;;;15.13;9.00;;;9.00;99.90;;;;;;5052071;28;20040;-63
2022/12/29 02:06:12;;;;;;;13.10;7.95;;;9.00;99.90;;;;;;5052093;28;20460;-63
2022/12/29 02:08:39;;;;;;;15.48;8.27;;;9.10;99.90;;;;;;5052118;28;20523;-63
2022/12/29 02:11:05;;;;;;;14.60;7.78;;;9.10;99.90;;;;;;5051948;28;20025;-63
2022/12/29 02:13:31;;;;;;;14.13;7.45;;;9.20;99.90;;;;;;5052201;28;20100;-64
2022/12/29 02:16:31;;;;;;;14.40;6.07;;;9.20;99.90;;;;;;5051674;28;20045;-64
2022/12/29 02:19:19;;;;;;;13.00;4.90;;;9.20;99.90;;;;;;5051946;28;20075;-64
2022/12/29 02:22:19;;;;;;;17.48;6.03;;;9.20;99.90;;;;;;5052021;28;20094;-64
2022/12/29 02:25:14;;;;;;;14.15;6.05;;;9.10;99.90;;;;;;5052326;28;20040;-64
2022/12/29 02:28:08;;;;;;;8.15;4.00;;;8.90;99.90;;;;;;5051734;28;20025;-64
2022/12/29 02:30:40;;;;;;;14.00;5.40;;;8.70;99.90;;;;;;5051546;28;20104;-64
2022/12/29 02:33:39;;;;;;;9.48;4.35;;;8.70;99.90;;;;;;5051879;28;20021;-64
2022/12/29 02:36:23;;;;;;;10.18;4.45;;;8.80;99.90;;;;;;5052139;28;20075;-64
2022/12/29 02:38:55;;;;;;;12.70;4.97;;;8.90;99.90;;;;;;5051742;28;20033;-64
2022/12/29 02:41:51;;;;;;;10.13;4.53;;;9.10;99.90;;;;;;5051757;28;20044;-63
2022/12/29 02:44:29;;;;;;;8.65;4.30;;;9.10;99.90;;;;;;5051382;28;20037;-63
2022/12/29 02:47:08;;;;;;;8.13;4.45;;;9.10;99.90;;;;;;5051758;28;20079;-64
2022/12/29 02:49:43;;;;;;;12.68;4.82;;;9.20;99.90;;;;;;5051597;28;20389;-64
2022/12/29 02:52:52;;;;;;;9.20;4.70;;;9.20;99.90;;;;;;5051927;28;20029;-63
2022/12/29 02:55:18;;;;;;;15.90;5.22;;;9.20;99.90;;;;;;5042427;28;20044;-63
2022/12/29 02:57:43;;;;;;;9.90;4.32;;;9.30;99.90;;;;;;5055506;28;20033;-64
2022/12/29 03:00:15;;;;;;;11.63;4.43;;;9.30;99.90;;;;;;5055352;28;20056;-64
2022/12/29 03:03:36;;;;;;;8.55;4.07;;;9.40;99.90;;;;;;5055249;28;20544;-63
2022/12/29 03:06:32;;;;;;;12.32;4.90;;;9.40;99.90;;;;;;5033123;28;20056;-64
2022/12/29 03:09:12;;;;;;;13.85;5.43;;;9.30;99.90;;;;;;5032919;28;20159;-63
2022/12/29 03:12:07;;;;;;;11.35;4.85;;;9.10;99.90;;;;;;5032968;28;20045;-64
2022/12/29 03:17:29;;;;;;;14.30;6.25;;;9.10;99.90;;;;;;5033518;28;20099;-64
2022/12/29 03:20:03;;;;;;;13.90;6.13;;;9.10;99.90;;;;;;5032937;28;20493;-64
2022/12/29 03:22:32;;;;;;;17.25;7.38;;;9.10;99.90;;;;;;5032997;28;20494;-63
2022/12/29 03:25:05;;;;;;;20.05;9.40;;;9.00;99.90;;;;;;5032756;28;20540;-64
2022/12/29 03:27:39;;;;;;;17.83;8.80;;;9.10;99.90;;;;;;5032421;28;20116;-64
2022/12/29 03:30:06;;;;;;;19.52;10.50;;;9.20;99.90;;;;;;5032628;28;20032;-64
2022/12/29 03:32:49;;;;;;;20.15;9.60;;;9.20;99.90;;;;;;5032656;28;20038;-64
2022/12/29 03:35:18;;;;;;;19.75;8.20;;;9.30;99.90;;;;;;5033186;28;20025;-64
2022/12/29 03:38:03;;;;;;;13.65;7.57;;;9.40;99.90;;;;;;5034862;28;20030;-64
2022/12/29 03:40:32;;;;;;;13.15;6.15;;;9.50;99.90;;;;;;5034625;28;20087;-63
2022/12/29 03:42:58;;;;;;;14.35;6.18;;;9.50;99.90;;;;;;5034457;28;20025;-64
2022/12/29 03:45:24;;;;;;;13.43;5.28;;;9.60;99.90;;;;;;5034698;28;20439;-64
2022/12/29 03:47:51;;;;;;;18.00;6.70;;;9.60;99.90;;;;;;5034705;28;20025;-64
2022/12/29 03:50:17;;;;;;;14.13;5.03;;;9.70;99.90;;;;;;5034577;28;20040;-64
2022/12/29 03:52:43;;;;;;;13.88;6.63;;;9.80;99.90;;;;;;5034440;28;20021;-63
2022/12/29 03:55:09;;;;;;;16.27;5.97;;;9.70;99.90;;;;;;5034372;28;20029;-63
2022/12/29 03:57:35;;;;;;;13.93;5.93;;;9.80;99.90;;;;;;5033218;28;20026;-64
2022/12/29 04:00:01;;;;;;;14.65;5.88;;;9.70;99.90;;;;;;5034275;28;20032;-64
2022/12/29 04:02:26;;;;;;;17.00;6.20;;;9.70;99.90;;;;;;5034428;28;20391;-64
2022/12/29 04:04:52;;;;;;;14.85;6.15;;;9.60;99.90;;;;;;5034139;28;20028;-64
2022/12/29 04:07:18;;;;;;;17.50;6.90;;;9.70;99.90;;;;;;5033845;28;20034;-63
2022/12/29 04:09:44;;;;;;;16.58;6.78;;;9.80;99.90;;;;;;5039888;28;20052;-63
2022/12/29 04:12:09;;;;;;;13.73;6.18;;;9.80;99.90;;;;;;5053812;28;20116;-63
2022/12/29 04:14:35;;;;;;;17.65;7.07;;;9.80;99.90;;;;;;5054057;28;20052;-64
2022/12/29 04:17:01;;;;;;;16.45;6.13;;;9.80;99.90;;;;;;5053963;28;20056;-64
2022/12/29 04:19:26;;;;;;;14.25;6.00;;;9.80;99.90;;;;;;5053844;28;20025;-64
2022/12/29 04:21:52;;;;;;;16.85;6.00;;;9.80;99.90;;;;;;5054016;28;20033;-64
2022/12/29 04:24:18;;;;;;;14.98;5.60;;;9.80;99.90;;;;;;5053811;28;20100;-64
2022/12/29 04:26:43;;;;;;;35.95;32.20;;;9.70;99.90;;;;;;5053846;28;20409;-64
2022/12/29 04:29:09;;;;;;;19.38;9.13;;;9.70;99.90;;;;;;5053635;28;20469;-64
2022/12/29 04:31:35;;;;;;;11.25;6.32;;;9.80;99.90;;;;;;5053483;28;20028;-64
2022/12/29 04:34:00;;;;;;;19.67;9.10;;;9.70;99.90;;;;;;5054051;28;20445;-64
2022/12/29 04:36:26;;;;;;;16.73;9.00;;;9.80;99.90;;;;;;5053714;28;20485;-64
2022/12/29 04:38:52;;;;;;;17.90;7.82;;;9.70;99.90;;;;;;5053403;28;20547;-64
2022/12/29 04:41:17;;;;;;;19.13;7.13;;;9.80;99.90;;;;;;5053327;28;20120;-64
2022/12/29 04:43:43;;;;;;;12.30;7.00;;;9.90;99.90;;;;;;5053972;28;20583;-63
2022/12/29 04:46:09;;;;;;;17.67;6.30;;;9.90;99.90;;;;;;5053091;28;20036;-64
2022/12/29 04:48:34;;;;;;;16.77;6.50;;;10.00;99.90;;;;;;5053708;28;20474;-64
2022/12/29 04:51:00;;;;;;;14.02;6.50;;;9.90;99.90;;;;;;5053246;28;20037;-64
2022/12/29 04:53:26;;;;;;;12.60;6.32;;;9.90;99.90;;;;;;5053791;28;20043;-64
2022/12/29 04:55:52;;;;;;;15.25;6.80;;;9.90;99.90;;;;;;5053028;28;20071;-64
2022/12/29 04:58:19;;;;;;;18.55;7.30;;;9.90;99.90;;;;;;5053295;28;20104;-64
2022/12/29 05:00:45;;;;;;;21.40;7.20;;;10.00;99.90;;;;;;5053073;28;20033;-64
2022/12/29 05:03:11;;;;;;;16.08;7.05;;;10.00;99.90;;;;;;5053235;28;20024;-63
2022/12/29 05:05:37;;;;;;;26.20;11.10;;;10.10;99.90;;;;;;5053419;28;20029;-64
2022/12/29 05:08:02;;;;;;;22.15;7.43;;;10.10;99.90;;;;;;5052481;28;20402;-64
2022/12/29 05:10:28;;;;;;;20.73;7.53;;;10.10;99.90;;;;;;5052688;28;20052;-64
2022/12/29 05:12:54;;;;;;;20.15;7.95;;;10.20;99.90;;;;;;5052990;28;20051;-63
2022/12/29 05:15:20;;;;;;;21.27;7.47;;;10.20;99.90;;;;;;5052902;28;20075;-64
2022/12/29 05:17:45;;;;;;;19.10;7.10;;;10.20;99.90;;;;;;5052413;28;20025;-64
2022/12/29 05:20:11;;;;;;;21.65;6.28;;;10.20;99.90;;;;;;5052649;28;20116;-64
2022/12/29 05:22:37;;;;;;;19.80;6.07;;;10.20;99.90;;;;;;5052365;28;20021;-64
2022/12/29 05:25:03;;;;;;;14.82;6.53;;;10.20;99.90;;;;;;5052782;28;20025;-63
2022/12/29 05:27:29;;;;;;;18.60;6.30;;;10.20;99.90;;;;;;5052795;28;20092;-64
2022/12/29 05:29:55;;;;;;;11.45;5.55;;;10.10;99.90;;;;;;5052653;28;20067;-64
2022/12/29 05:32:20;;;;;;;16.65;5.43;;;10.10;99.90;;;;;;5052612;28;20033;-64
2022/12/29 05:34:46;;;;;;;15.02;5.18;;;10.10;99.90;;;;;;5052451;28;20032;-63
2022/12/29 05:37:12;;;;;;;13.38;5.50;;;10.10;99.90;;;;;;5052572;28;20017;-64
2022/12/29 05:39:38;;;;;;;17.55;6.15;;;10.10;99.90;;;;;;5052494;28;20029;-64
2022/12/29 05:42:03;;;;;;;17.88;5.20;;;10.10;99.90;;;;;;5052197;28;20124;-64
2022/12/29 05:44:29;;;;;;;12.90;5.57;;;10.10;99.90;;;;;;5052534;28;20025;-64
2022/12/29 05:46:55;;;;;;;13.68;5.10;;;10.20;99.90;;;;;;5052366;28;20025;-64
2022/12/29 05:49:20;;;;;;;16.58;5.43;;;10.20;99.90;;;;;;5052199;28;20485;-63
2022/12/29 05:51:46;;;;;;;13.02;5.35;;;10.20;99.90;;;;;;5052358;28;20043;-64
2022/12/29 05:54:12;;;;;;;11.82;5.00;;;10.30;99.90;;;;;;5052393;28;20029;-64
2022/12/29 05:56:38;;;;;;;17.25;5.55;;;10.30;99.90;;;;;;5052180;28;20049;-64
2022/12/29 05:59:03;;;;;;;11.73;5.13;;;10.30;99.90;;;;;;5052260;28;20474;-64
2022/12/29 06:01:29;;;;;;;16.80;6.10;;;10.30;99.90;;;;;;5052215;28;20037;-64
2022/12/29 06:03:55;;;;;;;16.15;5.50;;;10.20;99.90;;;;;;5052255;28;20029;-64
2022/12/29 06:06:20;;;;;;;18.13;5.72;;;10.30;99.90;;;;;;5052179;28;20029;-64
2022/12/29 06:08:46;;;;;;;17.48;5.43;;;10.30;99.90;;;;;;5051968;28;20051;-64
2022/12/29 06:11:12;;;;;;;23.67;5.28;;;10.40;99.90;;;;;;5051939;28;20044;-63
2022/12/29 06:13:38;;;;;;;16.92;4.97;;;10.50;99.90;;;;;;5051985;28;20097;-64
2022/12/29 06:16:04;;;;;;;15.77;4.93;;;10.50;99.90;;;;;;5051911;28;20064;-64
2022/12/29 06:18:30;;;;;;;14.63;5.65;;;10.40;99.90;;;;;;5051876;28;20029;-64
2022/12/29 06:21:03;;;;;;;18.67;5.40;;;10.40;99.90;;;;;;5051543;28;20040;-64
2022/12/29 06:23:29;;;;;;;;;;;10.30;99.90;;;;;;5052690;28;20063;-64
2022/12/29 06:25:55;;;;;;;20.73;5.95;;;10.40;99.90;;;;;;5051923;28;19904;-63
2022/12/29 06:28:21;;;;;;;18.05;5.45;;;10.40;99.90;;;;;;5052217;28;20048;-64
2022/12/29 06:30:46;;;;;;;20.38;5.70;;;10.40;99.90;;;;;;5056380;28;20443;-64
2022/12/29 06:33:12;;;;;;;18.73;4.90;;;10.50;99.90;;;;;;5055958;28;20504;-64
2022/12/29 06:35:38;;;;;;;19.27;5.40;;;10.50;99.90;;;;;;5055675;28;20029;-64
2022/12/29 06:38:04;;;;;;;20.02;5.53;;;10.50;99.90;;;;;;5055820;28;20390;-64
2022/12/29 06:40:30;;;;;;;23.30;5.68;;;10.50;99.90;;;;;;5056088;28;20044;-64
2022/12/29 06:42:55;;;;;;;18.40;5.22;;;10.50;99.90;;;;;;5055846;28;20024;-64
2022/12/29 06:45:21;;;;;;;19.67;5.72;;;10.50;99.90;;;;;;5055740;28;20064;-63
2022/12/29 06:47:47;;;;;;;29.67;6.47;;;10.50;99.90;;;;;;5055939;28;20029;-64
2022/12/29 06:50:12;;;;;;;21.40;5.95;;;10.50;99.90;;;;;;5055360;28;20021;-64
2022/12/29 06:52:38;;;;;;;22.85;5.57;;;10.50;99.90;;;;;;5055498;28;20468;-64
2022/12/29 06:55:04;;;;;;;26.27;6.53;;;10.50;99.90;;;;;;5055619;28;20382;-65
2022/12/29 06:57:30;;;;;;;22.75;6.60;;;10.50;99.90;;;;;;5055856;28;20043;-64
2022/12/29 06:59:55;;;;;;;23.38;6.60;;;10.50;99.90;;;;;;5055477;28;20037;-64
2022/12/29 07:02:22;;;;;;;17.83;5.50;;;10.50;99.90;;;;;;5055367;28;20116;-64
2022/12/29 07:04:47;;;;;;;21.98;6.10;;;10.50;99.90;;;;;;5055353;28;20548;-64
2022/12/29 07:07:13;;;;;;;18.52;5.90;;;10.50;99.90;;;;;;5055309;28;20054;-64
2022/12/29 07:09:39;;;;;;;22.33;5.80;;;10.50;99.90;;;;;;5055089;28;20490;-64
2022/12/29 07:12:05;;;;;;;17.55;6.10;;;10.40;99.90;;;;;;5055190;28;20049;-64
2022/12/29 07:14:31;;;;;;;18.38;6.25;;;10.40;99.90;;;;;;5055869;28;20104;-64
2022/12/29 07:16:57;;;;;;;25.30;6.60;;;10.40;99.90;;;;;;5055400;28;20045;-64
2022/12/29 07:19:23;;;;;;;19.95;6.50;;;10.40;99.90;;;;;;5054729;28;20116;-64
2022/12/29 07:21:48;;;;;;;18.92;6.20;;;10.40;99.90;;;;;;5055109;28;20478;-64
2022/12/29 07:24:14;;;;;;;20.88;6.28;;;10.30;99.90;;;;;;5054970;28;20083;-64
2022/12/29 07:26:41;;;;;;;20.30;6.43;;;10.30;99.90;;;;;;5055018;28;20032;-63
2022/12/29 07:29:06;;;;;;;18.83;6.50;;;10.30;99.90;;;;;;5055130;28;20478;-64
2022/12/29 07:31:32;;;;;;;22.92;6.32;;;10.20;99.90;;;;;;5054649;28;20031;-64
2022/12/29 07:33:58;;;;;;;20.63;6.38;;;10.20;99.90;;;;;;5054545;28;20385;-63
2022/12/29 07:36:23;;;;;;;21.58;6.78;;;10.20;99.90;;;;;;5054743;28;20390;-64
2022/12/29 07:38:49;;;;;;;21.95;6.72;;;10.10;99.90;;;;;;5054682;28;20041;-64
2022/12/29 07:41:15;;;;;;;23.73;7.60;;;10.10;99.90;;;;;;5053902;28;20029;-63
2022/12/29 07:43:40;;;;;;;25.60;7.03;;;10.10;99.90;;;;;;5054395;28;20519;-64
2022/12/29 07:46:06;;;;;;;20.02;6.72;;;10.00;99.90;;;;;;5054429;28;20021;-64
2022/12/29 07:48:35;;;;;;;20.65;6.43;;;10.00;99.90;;;;;;5054138;28;20470;-63
2022/12/29 07:51:01;;;;;;;19.50;7.18;;;10.00;99.90;;;;;;5054468;28;20021;-64
2022/12/29 07:53:27;;;;;;;21.58;7.05;;;10.10;99.90;;;;;;5054832;28;20024;-64
2022/12/29 07:55:52;;;;;;;22.08;6.95;;;10.10;99.90;;;;;;5054411;28;20021;-64
2022/12/29 07:58:18;;;;;;;21.02;7.63;;;10.10;99.90;;;;;;5054388;28;20029;-64
2022/12/29 08:00:44;;;;;;;22.55;7.65;;;10.10;99.90;;;;;;5054104;28;20037;-64
2022/12/29 08:03:09;;;;;;;22.85;7.80;;;10.10;99.90;;;;;;5054427;28;20086;-64
2022/12/29 08:05:35;;;;;;;25.35;7.97;;;10.10;99.90;;;;;;5054190;28;20037;-64
2022/12/29 08:08:01;;;;;;;20.92;8.35;;;10.20;99.90;;;;;;5054092;28;20032;-64
2022/12/29 08:10:27;;;;;;;56.20;50.47;;;10.20;99.90;;;;;;5054258;28;20049;-64
2022/12/29 08:12:52;;;;;;;18.75;8.52;;;10.30;99.90;;;;;;5054099;28;20029;-64
2022/12/29 08:15:18;;;;;;;25.00;7.50;;;10.30;99.90;;;;;;5036370;28;20123;-64
2022/12/29 08:17:44;;;;;;;23.75;6.03;;;10.40;99.90;;;;;;5052285;28;20029;-64
2022/12/29 08:20:10;;;;;;;19.33;6.57;;;10.40;99.90;;;;;;5053881;28;20040;-64
2022/12/29 08:22:36;;;;;;;22.10;6.82;;;10.50;99.90;;;;;;5053859;28;20401;-64
2022/12/29 08:25:02;;;;;;;21.98;6.57;;;10.50;99.90;;;;;;5053918;28;20017;-64
2022/12/29 08:27:27;;;;;;;22.33;7.32;;;10.50;99.90;;;;;;5054110;28;20027;-63
2022/12/29 08:29:53;;;;;;;25.40;7.90;;;10.50;99.90;;;;;;5053485;28;20029;-63
2022/12/29 08:32:19;;;;;;;27.05;8.07;;;10.60;99.90;;;;;;5053421;28;20104;-64
2022/12/29 08:34:45;;;;;;;23.90;7.55;;;10.60;99.90;;;;;;5053688;28;20044;-64
2022/12/29 08:37:11;;;;;;;24.15;8.10;;;10.60;99.90;;;;;;5053563;28;20029;-63
2022/12/29 08:39:36;;;;;;;23.80;6.72;;;10.70;99.90;;;;;;5053503;28;20044;-64
2022/12/29 08:42:02;;;;;;;22.05;6.30;;;10.70;99.90;;;;;;5053915;28;20029;-64
2022/12/29 08:44:28;;;;;;;22.10;6.85;;;10.80;99.90;;;;;;5053476;28;20451;-64
2022/12/29 08:46:53;;;;;;;22.30;6.20;;;10.80;99.90;;;;;;5053084;28;20029;-64
2022/12/29 08:49:19;;;;;;;19.42;5.90;;;10.80;99.90;;;;;;5053791;28;20473;-64
2022/12/29 08:51:45;;;;;;;23.30;6.68;;;10.80;99.90;;;;;;5052628;28;20017;-64
2022/12/29 08:54:10;;;;;;;25.70;7.47;;;10.80;99.90;;;;;;5052852;28;20033;-63
2022/12/29 08:56:36;;;;;;;18.80;6.53;;;10.80;99.90;;;;;;5053241;28;20074;-64
2022/12/29 08:59:02;;;;;;;24.40;6.88;;;10.90;99.90;;;;;;5053667;28;20028;-64
2022/12/29 09:01:27;;;;;;;22.02;6.20;;;10.90;99.90;;;;;;5052788;28;20061;-63
2022/12/29 09:03:54;;;;;;;21.20;6.18;;;10.90;99.90;;;;;;5053045;28;20402;-63
2022/12/29 09:06:20;;;;;;;22.88;6.10;;;10.90;99.90;;;;;;5053329;28;20032;-64
2022/12/29 09:08:46;;;;;;;24.48;6.40;;;11.00;99.90;;;;;;5052911;28;20025;-64
2022/12/29 09:11:16;;;;;;;22.20;6.20;;;11.00;99.90;;;;;;5052881;28;20059;-64
2022/12/29 09:13:42;;;;;;;17.05;6.47;;;11.00;99.90;;;;;;5052842;28;20493;-64
2022/12/29 09:16:08;;;;;;;20.55;6.05;;;11.00;99.90;;;;;;5052461;28;20487;-64
2022/12/29 09:18:34;;;;;;;21.45;6.63;;;11.10;99.90;;;;;;5053093;28;20033;-64
2022/12/29 09:21:03;;;;;;;25.75;6.15;;;11.10;99.90;;;;;;5052749;28;20060;-64
2022/12/29 09:23:29;;;;;;;20.42;6.05;;;11.20;99.90;;;;;;5052818;28;20390;-64
2022/12/29 09:25:55;;;;;;;20.52;6.57;;;11.20;99.90;;;;;;5053110;28;20025;-64
2022/12/29 09:28:22;;;;;;;20.58;6.00;;;11.20;99.90;;;;;;5052429;28;20454;-64
2022/12/29 09:30:48;;;;;;;25.65;7.25;;;11.30;99.90;;;;;;5052204;28;20040;-64
2022/12/29 09:33:14;;;;;;;23.77;8.00;;;11.30;99.90;;;;;;5052674;28;20090;-64
2022/12/29 09:35:44;;;;;;;23.88;6.78;;;11.40;99.90;;;;;;5052627;28;20436;-64
2022/12/29 09:38:10;;;;;;;21.77;7.63;;;11.40;99.90;;;;;;5052572;28;20025;-64
2022/12/29 09:40:37;;;;;;;24.40;6.90;;;11.40;99.90;;;;;;5052624;28;20037;-63
2022/12/29 09:43:41;;;;;;;18.10;5.85;;;11.40;99.90;;;;;;5052727;28;20032;-63
2022/12/29 09:46:21;;;;;;;22.10;5.68;;;11.40;99.90;;;;;;5052261;28;20039;-63
2022/12/29 09:49:14;;;;;;;16.80;5.35;;;11.40;99.90;;;;;;5052385;28;20158;-64
2022/12/29 09:51:45;;;;;;;18.05;5.10;;;11.50;99.90;;;;;;5048187;28;20040;-63
2022/12/29 09:54:36;;;;;;;17.95;5.53;;;11.50;99.90;;;;;;5052614;28;20037;-64
2022/12/29 09:57:02;;;;;;;18.95;5.35;;;11.50;99.90;;;;;;5052309;28;20025;-64
2022/12/29 09:59:40;;;;;;;24.60;6.05;;;11.50;99.90;;;;;;5051840;28;20025;-64
2022/12/29 10:02:14;;;;;;;19.08;5.22;;;11.50;99.90;;;;;;5052220;28;20040;-63
2022/12/29 10:04:41;;;;;;;;;;;11.50;99.90;;;;;;5052123;28;20513;-64
2022/12/29 10:07:27;;;;;;;24.45;6.32;;;11.50;99.90;;;;;;5052529;28;19912;-64
2022/12/29 10:10:14;;;;;;;30.10;7.55;;;11.60;99.90;;;;;;5051771;28;20086;-63
2022/12/29 10:13:20;;;;;;;16.45;5.55;;;11.60;99.90;;;;;;5051601;28;20112;-63
2022/12/29 10:16:01;;;;;;;15.95;5.28;;;11.50;99.90;;;;;;5052101;28;20045;-64
2022/12/29 10:18:35;;;;;;;22.58;6.57;;;11.60;99.90;;;;;;5051951;28;20055;-63
2022/12/29 10:21:26;;;;;;;20.23;6.30;;;11.70;99.90;;;;;;5051973;28;20033;-63
2022/12/29 10:23:53;;;;;;;19.05;4.93;;;11.70;99.90;;;;;;5052116;28;20071;-63
2022/12/29 10:26:28;;;;;;;48.85;28.15;;;11.80;99.90;;;;;;5051822;28;20025;-64
2022/12/29 10:29:05;;;;;;;51.15;25.95;;;11.80;99.90;;;;;;5051401;28;20026;-63
2022/12/29 10:31:37;;;;;;;41.30;26.67;;;11.90;99.90;;;;;;5052159;28;20025;-62
2022/12/29 10:34:14;;;;;;;101.45;91.28;;;11.90;99.90;;;;;;5051762;28;20469;-63
2022/12/29 10:36:47;;;;;;;36.80;32.28;;;11.90;99.90;;;;;;5051596;28;20511;-64
2022/12/29 10:39:12;;;;;;;19.75;12.75;;;11.90;99.90;;;;;;5051947;28;20049;-64
2022/12/29 10:41:46;;;;;;;15.25;5.00;;;12.00;99.90;;;;;;5051432;28;20465;-63
2022/12/29 10:44:16;;;;;;;11.23;4.85;;;12.00;99.90;;;;;;5051723;28;20508;-64
2022/12/29 10:46:43;;;;;;;13.73;5.72;;;12.10;99.90;;;;;;5051642;28;20025;-64
2022/12/29 10:49:17;;;;;;;14.20;5.43;;;12.10;99.90;;;;;;5052128;28;20045;-63
2022/12/29 10:51:46;;;;;;;16.17;6.25;;;12.20;99.90;;;;;;5051894;28;20025;-63
2022/12/29 10:54:22;;;;;;;16.70;12.07;;;12.20;99.90;;;;;;5051751;28;20040;-64
2022/12/29 10:56:53;;;;;;;18.02;8.45;;;12.30;99.90;;;;;;5051204;28;20048;-63
2022/12/29 10:59:32;;;;;;;14.90;6.30;;;12.30;99.90;;;;;;5050361;28;20029;-64
2022/12/29 11:02:16;;;;;;;13.98;5.55;;;12.40;99.90;;;;;;5051797;28;20094;-64
2022/12/29 11:05:04;;;;;;;17.27;6.00;;;12.40;99.90;;;;;;5050058;28;20029;-63
2022/12/29 11:07:30;;;;;;;13.30;5.05;;;12.40;99.90;;;;;;5050213;28;20466;-63
2022/12/29 11:10:34;;;;;;;15.05;7.75;;;12.50;99.90;;;;;;5051007;28;20056;-63
2022/12/29 11:13:04;;;;;;;11.07;5.32;;;12.70;99.90;;;;;;5051823;28;20029;-64
2022/12/29 11:16:00;;;;;;;9.70;4.93;;;12.70;99.90;;;;;;5052407;28;20040;-64
2022/12/29 11:18:39;;;;;;;13.70;6.63;;;12.70;99.90;;;;;;5046552;28;20036;-64
2022/12/29 11:21:34;;;;;;;12.52;8.57;;;12.60;99.90;;;;;;5055182;28;20040;-64
2022/12/29 11:24:04;;;;;;;21.17;13.15;;;12.60;99.90;;;;;;5055049;28;20067;-63
2022/12/29 11:26:32;;;;;;;58.17;52.00;;;12.60;99.90;;;;;;5054713;28;20025;-63
2022/12/29 11:29:16;;;;;;;58.67;52.45;;;12.60;99.90;;;;;;5054855;28;20031;-64
2022/12/29 11:31:43;;;;;;;24.05;21.33;;;12.60;99.90;;;;;;5054928;28;20025;-63
2022/12/29 11:34:16;;;;;;;28.08;24.15;;;12.70;99.90;;;;;;5055245;28;20060;-64
2022/12/29 11:36:42;;;;;;;7.07;3.35;;;12.70;99.90;;;;;;5053392;28;20382;-64
2022/12/29 11:39:30;;;;;;;27.52;24.60;;;12.80;99.90;;;;;;5054760;28;20029;-64
2022/12/29 11:41:57;;;;;;;11.30;8.18;;;12.90;99.90;;;;;;5054783;28;20033;-63
2022/12/29 11:44:23;;;;;;;20.70;17.23;;;12.90;99.90;;;;;;5054577;28;20108;-63
2022/12/29 11:46:51;;;;;;;15.88;11.98;;;13.00;99.90;;;;;;5054872;28;20037;-64
2022/12/29 11:49:23;;;;;;;17.60;12.52;;;13.10;99.90;;;;;;5054548;28;20424;-63
2022/12/29 11:51:51;;;;;;;11.98;6.55;;;13.00;99.90;;;;;;5054390;28;20138;-64
2022/12/29 11:54:39;;;;;;;12.85;7.10;;;13.00;99.90;;;;;;5052984;28;20575;-64
2022/12/29 11:57:16;;;;;;;7.18;3.38;;;13.10;99.90;;;;;;5054220;28;20044;-64
2022/12/29 11:59:49;;;;;;;16.50;10.38;;;13.00;99.90;;;;;;5053355;28;20083;-64
2022/12/29 12:02:27;;;;;;;15.00;7.70;;;12.90;99.90;;;;;;5054322;28;20040;-64
2022/12/29 12:05:06;;;;;;;9.98;4.93;;;12.80;99.90;;;;;;5054718;28;20442;-63
2022/12/29 12:07:42;;;;;;;7.65;4.15;;;12.70;99.90;;;;;;5053528;28;20113;-63
2022/12/29 12:10:44;;;;;;;6.05;2.28;;;12.70;99.90;;;;;;5053889;28;20045;-63
2022/12/29 12:13:41;;;;;;;6.47;2.63;;;12.70;99.90;;;;;;5012079;28;20061;-63
2022/12/29 12:16:15;;;;;;;7.18;3.08;;;12.60;99.90;;;;;;5002102;28;20511;-64
2022/12/29 12:18:49;;;;;;;;;;;12.70;99.90;;;;;;5012589;28;20200;-63
2022/12/29 12:21:31;;;;;;;5.28;2.00;;;12.70;99.90;;;;;;5011924;28;19913;-63
2022/12/29 12:24:33;;;;;;;5.72;1.77;;;12.70;99.90;;;;;;5011761;28;20030;-63
2022/12/29 12:27:29;;;;;;;6.63;3.10;;;12.70;99.90;;;;;;5011631;28;20084;-63
2022/12/29 12:30:00;;;;;;;10.50;4.50;;;13.00;99.90;;;;;;5011746;28;20081;-63
2022/12/29 12:32:29;;;;;;;9.73;4.82;;;13.20;99.90;;;;;;4995505;28;20113;-63
2022/12/29 12:34:54;;;;;;;4.82;2.00;;;13.20;99.90;;;;;;5011845;28;20184;-63
2022/12/29 12:37:45;;;;;;;10.45;7.35;;;13.20;99.90;;;;;;5012003;28;20042;-63
2022/12/29 12:40:42;;;;;;;20.98;14.60;;;13.20;99.90;;;;;;5011708;28;20034;-63
2022/12/29 12:43:11;;;;;;;6.53;2.20;;;13.20;99.90;;;;;;5011971;28;20042;-64
2022/12/29 12:45:52;;;;;;;10.55;3.75;;;13.20;99.90;;;;;;5011493;28;20084;-64
2022/12/29 12:48:36;;;;;;;6.97;4.22;;;13.10;99.90;;;;;;5011692;28;20034;-64
2022/12/29 12:51:29;;;;;;;15.32;7.65;;;13.00;99.90;;;;;;5032185;28;20041;-64
2022/12/29 12:54:10;;;;;;;9.20;5.03;;;13.00;99.90;;;;;;5033131;28;20056;-64
2022/12/29 12:56:41;;;;;;;9.57;5.18;;;12.90;99.90;;;;;;5033222;28;20071;-63
2022/12/29 12:59:37;;;;;;;6.55;4.45;;;12.80;99.90;;;;;;5033690;28;20033;-63
2022/12/29 13:02:17;;;;;;;6.72;5.05;;;12.70;99.90;;;;;;5028597;28;20045;-63
2022/12/29 13:05:24;;;;;;;4.43;1.90;;;12.70;99.90;;;;;;5033085;28;20032;-63
2022/12/29 13:08:02;;;;;;;16.75;14.75;;;12.60;99.90;;;;;;5032872;28;20029;-63
2022/12/29 13:10:47;;;;;;;5.72;2.25;;;12.50;99.90;;;;;;5044716;28;20049;-63
2022/12/29 13:13:32;;;;;;;16.35;13.93;;;12.40;99.90;;;;;;5052764;28;20478;-63
2022/12/29 13:16:03;;;;;;;6.30;3.60;;;12.40;99.90;;;;;;5052983;28;20436;-63
2022/12/29 13:18:50;;;;;;;15.32;13.73;;;12.40;99.90;;;;;;5052799;28;20021;-63
2022/12/29 13:21:21;;;;;;;15.85;13.13;;;12.40;99.90;;;;;;5052382;28;20513;-63
2022/12/29 13:24:13;;;;;;;9.40;7.72;;;12.30;99.90;;;;;;5052758;28;20029;-63
2022/12/29 13:26:43;;;;;;;5.47;2.40;;;12.30;99.90;;;;;;5052626;28;20446;-63
2022/12/29 13:29:27;;;;;;;12.02;8.60;;;12.30;99.90;;;;;;5052661;28;20036;-63
2022/12/29 13:31:52;;;;;;;;;;;12.20;99.90;;;;;;5053154;28;20032;-63
2022/12/29 13:34:51;;;;;;;6.35;4.97;;;12.30;99.90;;;;;;5052667;28;19905;-63
2022/12/29 13:37:20;;;;;;;6.00;3.13;;;12.20;99.90;;;;;;5052215;28;20547;-63